createdAt,value
2019-04-22T00:02:07.931Z,14.30
2019-04-22T00:04:49.814Z,14.30
2019-04-22T00:07:29.245Z,14.20
2019-04-22T00:12:37.330Z,14.10
2019-04-22T00:14:59.969Z,14.10
2019-04-22T00:17:38.867Z,14.10
2019-04-22T00:20:04.608Z,14.10
2019-04-22T00:22:32.027Z,14.00
2019-04-22T00:25:10.456Z,14.00
2019-04-22T00:32:50.066Z,14.00
2019-04-22T00:35:19.514Z,14.00
2019-04-22T00:37:54.185Z,13.90
2019-04-22T00:40:25.264Z,14.00
2019-04-22T00:42:53.298Z,13.90
2019-04-22T00:45:40.020Z,13.90
2019-04-22T00:47:53.015Z,13.90
2019-04-22T00:50:26.801Z,13.90
2019-04-22T00:52:57.629Z,13.90
2019-04-22T00:55:29.898Z,13.90
2019-04-22T00:57:54.254Z,13.90
2019-04-22T01:00:27.745Z,13.80
2019-04-22T01:03:01.642Z,13.80
2019-04-22T01:05:30.161Z,13.80
2019-04-22T01:08:04.306Z,13.70
2019-04-22T01:10:32.393Z,13.70
2019-04-22T01:12:57.316Z,13.60
2019-04-22T01:15:30.338Z,13.60
2019-04-22T01:18:00.236Z,13.60
2019-04-22T01:20:58.851Z,13.60
2019-04-22T01:22:59.113Z,13.60
2019-04-22T01:25:28.026Z,13.60
2019-04-22T01:27:52.844Z,13.60
2019-04-22T01:30:21.144Z,13.50
2019-04-22T01:32:44.881Z,13.60
2019-04-22T01:35:24.453Z,13.50
2019-04-22T01:37:54.409Z,13.60
2019-04-22T01:40:42.978Z,13.60
2019-04-22T01:43:13.347Z,13.60
2019-04-22T01:45:39.538Z,13.50
2019-04-22T01:48:11.462Z,13.50
2019-04-22T01:50:37.039Z,13.40
2019-04-22T01:58:08.220Z,13.30
2019-04-22T02:00:40.126Z,13.30
2019-04-22T02:03:10.551Z,13.30
2019-04-22T02:05:44.119Z,13.30
2019-04-22T02:08:22.013Z,13.30
2019-04-22T02:10:53.212Z,13.30
2019-04-22T02:13:17.108Z,13.30
2019-04-22T02:15:47.865Z,13.30
2019-04-22T02:18:18.092Z,13.20
2019-04-22T02:20:42.951Z,13.20
2019-04-22T02:28:32.550Z,13.20
2019-04-22T02:46:22.445Z,13.10
2019-04-22T02:51:12.548Z,13.10
2019-04-22T02:58:55.022Z,13.10
2019-04-22T03:01:13.585Z,13.20
2019-04-22T03:03:54.478Z,13.20
2019-04-22T03:08:45.571Z,13.20
2019-04-22T03:11:22.467Z,13.30
2019-04-22T03:13:51.137Z,13.30
2019-04-22T03:16:17.812Z,13.30
2019-04-22T03:18:51.281Z,13.40
2019-04-22T03:21:15.936Z,13.40
2019-04-22T03:26:23.250Z,13.40
2019-04-22T03:28:51.801Z,13.50
2019-04-22T03:31:34.020Z,13.50
2019-04-22T03:34:26.229Z,13.40
2019-04-22T03:36:57.291Z,13.50
2019-04-22T03:39:04.502Z,13.50
2019-04-22T03:41:46.117Z,13.40
2019-04-22T03:44:08.270Z,13.40
2019-04-22T03:46:30.098Z,13.50
2019-04-22T03:49:12.071Z,13.50
2019-04-22T03:51:38.787Z,13.60
2019-04-22T03:54:02.837Z,13.60
2019-04-22T03:56:59.105Z,13.60
2019-04-22T03:58:57.095Z,13.60
2019-04-22T04:01:36.904Z,13.60
2019-04-22T04:04:20.943Z,13.60
2019-04-22T04:06:36.651Z,13.60
2019-04-22T04:09:01.966Z,13.60
2019-04-22T04:11:38.412Z,13.60
2019-04-22T04:14:00.882Z,13.60
2019-04-22T04:16:36.723Z,13.60
2019-04-22T04:19:08.217Z,13.50
2019-04-22T04:21:33.043Z,13.40
2019-04-22T04:24:18.326Z,13.40
2019-04-22T04:26:47.870Z,13.30
2019-04-22T04:29:17.158Z,13.30
2019-04-22T04:31:51.297Z,13.30
2019-04-22T04:34:29.765Z,13.30
2019-04-22T04:36:37.089Z,13.30
2019-04-22T04:39:05.668Z,13.30
2019-04-22T04:41:43.324Z,13.40
2019-04-22T04:44:11.148Z,13.40
2019-04-22T04:49:19.279Z,13.50
2019-04-22T05:01:45.119Z,13.60
2019-04-22T05:09:16.796Z,13.60
2019-04-22T05:12:03.535Z,13.60
2019-04-22T05:14:09.269Z,13.60
2019-04-22T05:16:43.071Z,13.70
2019-04-22T05:21:38.519Z,13.80
2019-04-22T05:24:19.811Z,13.80
2019-04-22T05:26:44.151Z,13.90
2019-04-22T05:29:11.086Z,13.90
2019-04-22T05:31:43.652Z,13.90
2019-04-22T05:34:12.358Z,13.90
2019-04-22T05:36:40.898Z,14.00
2019-04-22T05:39:12.484Z,14.00
2019-04-22T05:41:44.551Z,14.00
2019-04-22T05:46:47.561Z,14.10
2019-04-22T05:49:15.026Z,14.10
2019-04-22T05:51:43.649Z,14.20
2019-04-22T05:54:14.618Z,14.30
2019-04-22T05:59:12.519Z,14.40
2019-04-22T06:01:51.267Z,14.50
2019-04-22T06:04:19.915Z,14.50
2019-04-22T06:06:39.926Z,14.50
2019-04-22T06:09:14.715Z,14.50
2019-04-22T06:11:36.280Z,14.60
2019-04-22T06:14:18.740Z,14.70
2019-04-22T06:16:50.405Z,14.70
2019-04-22T06:19:18.806Z,14.80
2019-04-22T06:21:48.121Z,14.80
2019-04-22T06:24:38.110Z,14.80
2019-04-22T06:27:01.630Z,14.90
2019-04-22T06:32:23.101Z,15.10
2019-04-22T06:37:05.319Z,15.20
2019-04-22T06:39:28.206Z,15.20
2019-04-22T06:42:01.059Z,15.30
2019-04-22T06:46:56.480Z,15.50
2019-04-22T06:49:31.856Z,15.50
2019-04-22T06:52:01.198Z,15.50
2019-04-22T06:54:28.989Z,15.60
2019-04-22T06:56:59.596Z,15.60
2019-04-22T07:02:06.332Z,15.80
2019-04-22T07:04:29.671Z,15.80
2019-04-22T07:07:03.377Z,15.90
2019-04-22T07:09:38.304Z,15.90
2019-04-22T07:12:04.753Z,16.00
2019-04-22T07:14:31.666Z,16.10
2019-04-22T07:17:04.725Z,16.10
2019-04-22T07:19:33.728Z,16.20
2019-04-22T07:22:08.489Z,16.20
2019-04-22T07:27:08.608Z,16.40
2019-04-22T07:29:32.564Z,16.40
2019-04-22T07:32:07.850Z,16.50
2019-04-22T07:34:56.805Z,16.60
2019-04-22T07:39:35.615Z,16.70
2019-04-22T07:42:17.205Z,16.70
2019-04-22T07:44:38.457Z,16.80
2019-04-22T07:47:13.631Z,16.90
2019-04-22T07:52:10.069Z,16.90
2019-04-22T07:54:43.142Z,17.00
2019-04-22T07:57:15.088Z,17.00
2019-04-22T07:59:40.549Z,17.10
2019-04-22T08:02:10.384Z,17.10
2019-04-22T08:04:54.285Z,17.20
2019-04-22T08:07:12.671Z,17.20
2019-04-22T08:09:53.968Z,17.20
2019-04-22T08:12:11.991Z,17.30
2019-04-22T08:14:45.846Z,17.40
2019-04-22T08:17:43.154Z,17.40
2019-04-22T08:19:50.140Z,17.50
2019-04-22T08:22:14.338Z,17.60
2019-04-22T08:24:47.230Z,17.60
2019-04-22T08:27:30.393Z,17.60
2019-04-22T08:29:52.198Z,17.70
2019-04-22T08:32:14.593Z,17.70
2019-04-22T08:34:42.817Z,17.80
2019-04-22T08:37:41.557Z,17.80
2019-04-22T08:39:56.722Z,17.90
2019-04-22T08:42:27.080Z,17.90
2019-04-22T08:47:26.251Z,18.00
2019-04-22T08:49:56.994Z,18.20
2019-04-22T08:52:26.112Z,18.20
2019-04-22T08:54:51.247Z,18.20
2019-04-22T08:57:26.085Z,18.40
2019-04-22T08:59:59.231Z,18.50
2019-04-22T09:02:26.047Z,18.40
2019-04-22T09:04:52.159Z,18.40
2019-04-22T09:07:36.801Z,18.50
2019-04-22T09:09:53.308Z,18.50
2019-04-22T09:12:34.747Z,18.50
2019-04-22T09:14:49.549Z,18.60
2019-04-22T09:19:54.566Z,18.70
2019-04-22T09:22:22.049Z,18.80
2019-04-22T09:24:54.473Z,18.90
2019-04-22T09:27:33.186Z,19.00
2019-04-22T09:30:01.655Z,19.00
2019-04-22T09:32:26.401Z,19.10
2019-04-22T09:34:56.265Z,19.00
2019-04-22T09:40:04.499Z,19.10
2019-04-22T09:42:32.539Z,19.20
2019-04-22T09:44:59.253Z,19.20
2019-04-22T09:47:33.869Z,19.30
2019-04-22T09:50:03.748Z,19.40
2019-04-22T09:52:28.005Z,19.40
2019-04-22T09:55:06.140Z,19.40
2019-04-22T09:57:44.977Z,19.40
2019-04-22T10:00:03.346Z,19.50
2019-04-22T10:02:34.385Z,19.60
2019-04-22T10:05:07.887Z,19.60
2019-04-22T10:07:32.433Z,19.70
2019-04-22T10:10:08.977Z,19.80
2019-04-22T10:12:36.525Z,19.80
2019-04-22T10:15:00.549Z,19.90
2019-04-22T10:17:35.019Z,19.90
2019-04-22T10:20:08.982Z,20.00
2019-04-22T10:22:42.157Z,20.00
2019-04-22T10:25:06.288Z,20.00
2019-04-22T10:27:32.802Z,20.10
2019-04-22T10:30:02.798Z,20.20
2019-04-22T10:32:38.082Z,20.20
2019-04-22T10:34:55.529Z,20.20
2019-04-22T10:37:20.453Z,20.30
2019-04-22T10:39:56.251Z,20.20
2019-04-22T10:42:21.367Z,20.30
2019-04-22T10:44:57.286Z,20.30
2019-04-22T10:47:27.729Z,20.30
2019-04-22T10:49:58.014Z,20.30
2019-04-22T10:52:27.653Z,20.40
2019-04-22T10:54:56.619Z,20.40
2019-04-22T10:57:25.633Z,20.40
2019-04-22T10:59:54.514Z,20.50
2019-04-22T11:02:23.453Z,20.50
2019-04-22T11:04:52.431Z,20.50
2019-04-22T11:07:32.554Z,20.50
2019-04-22T11:09:59.060Z,20.50
2019-04-22T11:12:26.091Z,20.60
2019-04-22T11:14:53.756Z,20.60
2019-04-22T11:17:23.955Z,20.70
2019-04-22T11:19:53.368Z,20.80
2019-04-22T11:22:27.664Z,20.80
2019-04-22T11:24:53.300Z,20.90
2019-04-22T11:27:23.309Z,21.00
2019-04-22T11:29:53.155Z,20.90
2019-04-22T11:32:22.344Z,20.90
2019-04-22T11:34:51.310Z,21.00
2019-04-22T11:37:20.763Z,21.00
2019-04-22T11:40:04.666Z,21.00
2019-04-22T11:42:20.467Z,21.00
2019-04-22T11:44:50.863Z,21.10
2019-04-22T11:47:19.698Z,21.10
2019-04-22T11:49:49.715Z,21.10
2019-04-22T11:52:20.368Z,21.10
2019-04-22T11:54:50.687Z,21.10
2019-04-22T11:57:19.540Z,21.20
2019-04-22T11:59:49.031Z,21.20
2019-04-22T12:02:21.606Z,21.20
2019-04-22T12:04:51.820Z,21.20
2019-04-22T12:07:21.281Z,21.30
2019-04-22T12:09:51.305Z,21.30
2019-04-22T12:12:21.549Z,21.40
2019-04-22T12:14:50.382Z,21.40
2019-04-22T12:17:20.015Z,21.40
2019-04-22T12:19:50.356Z,21.50
2019-04-22T12:22:20.640Z,21.50
2019-04-22T12:24:50.351Z,21.50
2019-04-22T12:27:20.910Z,21.60
2019-04-22T12:29:51.098Z,21.70
2019-04-22T12:32:21.289Z,21.70
2019-04-22T12:34:51.282Z,21.80
2019-04-22T12:37:28.952Z,21.70
2019-04-22T12:39:53.101Z,21.80
2019-04-22T12:42:21.499Z,21.80
2019-04-22T12:44:51.186Z,21.90
2019-04-22T12:47:20.124Z,21.90
2019-04-22T12:49:57.111Z,21.90
2019-04-22T12:52:26.611Z,21.90
2019-04-22T12:54:50.979Z,21.90
2019-04-22T12:57:20.671Z,21.90
2019-04-22T12:59:49.855Z,21.90
2019-04-22T13:02:18.832Z,21.80
2019-04-22T13:04:47.922Z,21.70
2019-04-22T13:07:17.688Z,21.70
2019-04-22T13:09:47.368Z,21.70
2019-04-22T13:12:17.157Z,21.60
2019-04-22T13:14:46.142Z,21.70
2019-04-22T13:17:15.720Z,21.80
2019-04-22T13:19:45.307Z,21.70
2019-04-22T13:22:14.648Z,21.80
2019-04-22T13:24:43.852Z,21.90
2019-04-22T13:27:13.010Z,21.90
2019-04-22T13:29:43.378Z,22.00
2019-04-22T13:32:13.210Z,22.10
2019-04-22T13:34:46.655Z,22.10
2019-04-22T13:37:12.823Z,22.20
2019-04-22T13:39:42.882Z,22.20
2019-04-22T13:42:16.152Z,22.30
2019-04-22T13:44:44.041Z,22.30
2019-04-22T13:47:30.793Z,22.10
2019-04-22T13:50:17.676Z,22.10
2019-04-22T13:52:48.416Z,22.00
2019-04-22T13:55:05.740Z,21.90
2019-04-22T13:57:34.363Z,21.80
2019-04-22T13:59:50.727Z,21.70
2019-04-22T14:02:24.329Z,21.70
2019-04-22T14:04:54.916Z,21.70
2019-04-22T14:07:24.841Z,21.70
2019-04-22T14:09:54.109Z,21.60
2019-04-22T14:12:22.895Z,21.60
2019-04-22T14:14:52.562Z,21.50
2019-04-22T14:17:22.990Z,21.40
2019-04-22T14:19:52.820Z,21.30
2019-04-22T14:22:22.037Z,21.60
2019-04-22T14:24:52.225Z,21.60
2019-04-22T14:27:30.622Z,21.70
2019-04-22T14:29:51.652Z,21.70
2019-04-22T14:32:25.366Z,22.00
2019-04-22T14:34:51.135Z,22.00
2019-04-22T14:37:20.326Z,21.90
2019-04-22T14:39:49.323Z,21.80
2019-04-22T14:42:38.485Z,21.70
2019-04-22T14:47:47.574Z,21.60
2019-04-22T14:50:12.637Z,21.60
2019-04-22T14:52:42.080Z,21.60
2019-04-22T14:55:01.875Z,21.60
2019-04-22T14:57:21.378Z,21.40
2019-04-22T14:59:50.218Z,21.30
2019-04-22T15:02:19.631Z,21.10
2019-04-22T15:04:49.947Z,21.10
2019-04-22T15:07:19.202Z,21.10
2019-04-22T15:09:48.155Z,21.00
2019-04-22T15:12:27.839Z,20.80
2019-04-22T15:14:47.953Z,20.80
2019-04-22T15:17:22.751Z,20.70
2019-04-22T15:19:53.980Z,20.60
2019-04-22T15:22:22.882Z,20.30
2019-04-22T15:24:52.435Z,20.30
2019-04-22T15:27:22.458Z,20.30
2019-04-22T15:29:51.740Z,20.20
2019-04-22T15:32:21.205Z,20.00
2019-04-22T15:34:51.149Z,20.10
2019-04-22T15:37:20.477Z,20.00
2019-04-22T15:39:49.870Z,20.00
2019-04-22T15:42:27.615Z,19.90
2019-04-22T15:44:49.224Z,19.70
2019-04-22T15:47:18.836Z,19.60
2019-04-22T15:49:47.907Z,19.50
2019-04-22T15:52:16.710Z,19.50
2019-04-22T15:54:49.983Z,19.40
2019-04-22T15:57:17.187Z,19.40
2019-04-22T16:00:05.252Z,19.30
2019-04-22T16:02:16.469Z,19.30
2019-04-22T16:04:46.532Z,19.20
2019-04-22T16:07:16.854Z,19.10
2019-04-22T16:09:45.846Z,19.00
2019-04-22T16:12:22.715Z,19.00
2019-04-22T16:14:50.547Z,18.90
2019-04-22T16:17:16.797Z,18.90
2019-04-22T16:19:46.712Z,18.80
2019-04-22T16:22:18.986Z,18.80
2019-04-22T16:25:02.318Z,18.70
2019-04-22T16:27:32.065Z,18.70
2019-04-22T16:30:01.407Z,18.70
2019-04-22T16:32:31.808Z,18.60
2019-04-22T16:35:00.863Z,18.60
2019-04-22T16:37:30.541Z,18.50
2019-04-22T16:40:00.764Z,18.40
2019-04-22T16:42:37.899Z,18.30
2019-04-22T16:45:00.054Z,18.30
2019-04-22T16:47:28.921Z,18.30
2019-04-22T16:49:57.671Z,18.30
2019-04-22T16:52:27.958Z,18.10
2019-04-22T16:54:56.947Z,18.20
2019-04-22T16:57:26.125Z,18.10
2019-04-22T16:59:55.003Z,18.00
2019-04-22T17:02:45.191Z,17.90
2019-04-22T17:05:18.012Z,17.90
2019-04-22T17:07:48.105Z,17.90
2019-04-22T17:10:17.773Z,17.80
2019-04-22T17:12:57.656Z,17.80
2019-04-22T17:15:18.891Z,17.70
2019-04-22T17:17:49.150Z,17.60
2019-04-22T17:20:37.520Z,17.60
2019-04-22T17:23:07.458Z,17.60
2019-04-22T17:25:36.372Z,17.50
2019-04-22T17:28:05.688Z,17.40
2019-04-22T17:30:35.880Z,17.40
2019-04-22T17:33:05.197Z,17.30
2019-04-22T17:35:34.092Z,17.20
2019-04-22T17:38:12.571Z,17.20
2019-04-22T17:40:53.743Z,17.20
2019-04-22T17:43:36.118Z,17.10
2019-04-22T17:46:07.104Z,17.00
2019-04-22T17:49:04.320Z,17.10
2019-04-22T17:51:30.084Z,17.00
2019-04-22T17:53:57.971Z,16.90
2019-04-22T17:56:27.572Z,16.80
2019-04-22T17:58:56.802Z,16.70
2019-04-22T18:01:29.741Z,16.80
2019-04-22T18:03:45.780Z,16.70
2019-04-22T18:06:19.259Z,16.60
2019-04-22T18:08:55.180Z,16.60
2019-04-22T18:11:36.393Z,16.50
2019-04-22T18:14:16.956Z,16.40
2019-04-22T18:16:32.278Z,16.40
2019-04-22T18:19:00.813Z,16.40
2019-04-22T18:21:29.234Z,16.40
2019-04-22T18:23:54.188Z,16.30
2019-04-22T18:26:32.285Z,16.20
2019-04-22T18:29:07.117Z,16.20
2019-04-22T18:31:26.818Z,16.20
2019-04-22T18:34:01.976Z,16.10
2019-04-22T18:36:33.309Z,16.00
2019-04-22T18:39:11.519Z,16.10
2019-04-22T18:41:34.064Z,16.00
2019-04-22T18:44:11.509Z,16.00
2019-04-22T18:46:36.985Z,15.90
2019-04-22T18:49:08.162Z,15.90
2019-04-22T18:51:46.324Z,15.90
2019-04-22T18:54:21.212Z,15.90
2019-04-22T18:56:50.866Z,15.80
2019-04-22T18:59:13.529Z,15.70
2019-04-22T19:01:58.637Z,15.70
2019-04-22T19:04:31.749Z,15.70
2019-04-22T19:07:19.006Z,15.70
2019-04-22T19:10:00.020Z,15.60
2019-04-22T19:12:27.501Z,15.60
2019-04-22T19:14:53.037Z,15.60
2019-04-22T19:17:31.294Z,15.50
2019-04-22T19:19:50.018Z,15.40
2019-04-22T19:22:19.617Z,15.40
2019-04-22T19:24:45.465Z,15.50
2019-04-22T19:27:16.295Z,15.40
2019-04-22T19:29:53.985Z,15.30
2019-04-22T19:32:21.337Z,15.30
2019-04-22T19:34:48.190Z,15.30
2019-04-22T19:37:20.757Z,15.30
2019-04-22T19:40:01.208Z,15.20
2019-04-22T19:42:30.148Z,15.10
2019-04-22T19:44:55.012Z,15.20
2019-04-22T19:50:01.025Z,15.10
2019-04-22T19:52:30.286Z,15.10
2019-04-22T19:54:58.344Z,15.00
2019-04-22T19:57:22.611Z,15.00
2019-04-22T19:59:56.269Z,15.00
2019-04-22T20:02:39.221Z,15.00
2019-04-22T20:05:24.912Z,14.90
2019-04-22T20:07:41.610Z,14.90
2019-04-22T20:10:19.594Z,14.90
2019-04-22T20:12:42.502Z,14.90
2019-04-22T20:15:14.307Z,14.80
2019-04-22T20:18:11.450Z,14.80
2019-04-22T20:20:22.794Z,14.70
2019-04-22T20:22:45.138Z,14.70
2019-04-22T20:25:07.566Z,14.70
2019-04-22T20:27:47.465Z,14.60
2019-04-22T20:30:23.453Z,14.60
2019-04-22T20:32:47.668Z,14.60
2019-04-22T20:35:24.857Z,14.60
2019-04-22T20:37:54.962Z,14.50
2019-04-22T20:40:25.268Z,14.40
2019-04-22T20:42:56.767Z,14.50
2019-04-22T20:45:25.085Z,14.50
2019-04-22T20:47:45.496Z,14.50
2019-04-22T20:50:32.875Z,14.50
2019-04-22T20:53:02.434Z,14.30
2019-04-22T20:55:19.172Z,14.40
2019-04-22T20:57:59.035Z,14.40
2019-04-22T21:00:23.480Z,14.30
2019-04-22T21:02:48.792Z,14.20
2019-04-22T21:05:25.096Z,14.30
2019-04-22T21:08:06.330Z,14.20
2019-04-22T21:10:23.190Z,14.20
2019-04-22T21:12:56.641Z,14.10
2019-04-22T21:15:39.363Z,14.20
2019-04-22T21:18:02.929Z,14.20
2019-04-22T21:20:39.254Z,14.10
2019-04-22T21:23:02.618Z,14.10
2019-04-22T21:25:25.301Z,14.10
2019-04-22T21:28:04.826Z,14.10
2019-04-22T21:30:34.261Z,14.00
2019-04-22T21:32:58.018Z,14.00
2019-04-22T21:35:53.884Z,14.00
2019-04-22T21:38:09.861Z,14.10
2019-04-22T21:40:37.573Z,14.00
2019-04-22T21:43:13.383Z,14.00
2019-04-22T21:45:28.038Z,13.90
2019-04-22T21:48:20.106Z,13.90
2019-04-22T21:51:01.294Z,14.00
2019-04-22T21:53:16.466Z,13.90
2019-04-22T21:55:43.683Z,13.90
2019-04-22T21:58:31.858Z,13.90
2019-04-22T22:01:16.949Z,13.90
2019-04-22T22:03:39.630Z,13.90
2019-04-22T22:05:58.703Z,13.80
2019-04-22T22:08:42.470Z,13.80
2019-04-22T22:11:06.389Z,13.80
2019-04-22T22:13:39.284Z,13.80
2019-04-22T22:16:04.060Z,13.80
2019-04-22T22:18:29.990Z,13.80
2019-04-22T22:21:29.903Z,13.80
2019-04-22T22:24:01.270Z,13.80
2019-04-22T22:26:05.705Z,13.80
2019-04-22T22:29:03.518Z,13.80
2019-04-22T22:31:17.322Z,13.70
2019-04-22T22:33:43.243Z,13.80
2019-04-22T22:36:08.637Z,13.70
2019-04-22T22:38:35.118Z,13.70
2019-04-22T22:40:52.005Z,13.70
2019-04-22T22:43:29.956Z,13.70
2019-04-22T22:46:03.267Z,13.60
2019-04-22T22:48:46.156Z,13.70
2019-04-22T22:51:15.546Z,13.60
2019-04-22T22:53:46.332Z,13.60
2019-04-22T22:56:10.465Z,13.60
2019-04-22T22:58:45.921Z,13.60
2019-04-22T23:01:16.090Z,13.60
2019-04-22T23:03:51.750Z,13.60
2019-04-22T23:06:22.695Z,13.50
2019-04-22T23:08:51.645Z,13.50
2019-04-22T23:11:25.278Z,13.60
2019-04-22T23:13:49.936Z,13.50
2019-04-22T23:16:10.082Z,13.50
2019-04-22T23:18:28.031Z,13.60
2019-04-22T23:20:58.892Z,13.50
2019-04-22T23:23:45.352Z,13.50
2019-04-22T23:26:37.106Z,13.50
2019-04-22T23:29:15.689Z,13.50
2019-04-22T23:31:46.831Z,13.50
2019-04-22T23:34:22.711Z,13.50
2019-04-22T23:37:11.824Z,13.50
2019-04-22T23:39:56.098Z,13.40
2019-04-22T23:42:23.695Z,13.40
2019-04-22T23:44:50.635Z,13.40
2019-04-22T23:47:10.921Z,13.40
2019-04-22T23:49:53.710Z,13.40
2019-04-22T23:52:23.910Z,13.40
2019-04-22T23:54:58.857Z,13.40
2019-04-22T23:57:30.795Z,13.40
2019-04-22T23:59:58.569Z,13.30
